Time;durP1;ratioP1;P1;durP2;ratioP2;P2;SDS_P1;SDS_P2;PMS_P1;PMS_P2;Temp;Humidity;BMP_temperature;BMP_pressure;BME280_temperature;BME280_humidity;BME280_pressure;Samples;Min_cycle;Max_cycle;Signal;HPM_P1;HPM_P2
2022/08/20 00:00:54;;;;;;;0.30;0.30;;;;;;;23.38;60.64;100973.31;5108886;28;20115;-81
2022/08/20 00:03:28;;;;;;;2.50;1.08;;;;;;;23.32;60.78;100972.94;5124196;28;20048;-81
2022/08/20 00:06:21;;;;;;;0.30;0.30;;;;;;;23.26;60.54;100967.06;5114687;28;20048;-81
2022/08/20 00:08:51;;;;;;;0.65;0.47;;;;;;;23.24;59.53;100966.34;5116717;28;20037;-81
2022/08/20 00:11:27;;;;;;;0.30;0.30;;;;;;;23.21;60.24;100966.56;5121772;28;20319;-80
2022/08/20 00:14:02;;;;;;;0.45;0.45;;;;;;;23.18;60.29;100972.16;5164917;28;20030;-82
2022/08/20 00:16:36;;;;;;;0.30;0.30;;;;;;;23.20;60.72;100972.88;5124331;28;20674;-81
2022/08/20 00:19:08;;;;;;;0.60;0.50;;;;;;;23.18;60.98;100969.47;5130543;28;20035;-81
2022/08/20 00:21:39;;;;;;;1.60;0.95;;;;;;;23.12;60.61;100961.88;5160379;28;20034;-80
2022/08/20 00:24:13;;;;;;;0.45;0.45;;;;;;;23.11;60.38;100970.88;5142466;28;20586;-81
2022/08/20 00:26:46;;;;;;;0.60;0.60;;;;;;;23.11;60.24;100970.88;5160905;28;20038;-80
2022/08/20 00:29:16;;;;;;;0.63;0.63;;;;;;;23.00;61.35;100970.88;5171082;28;20038;-81
2022/08/20 00:31:47;;;;;;;1.40;1.10;;;;;;;23.00;60.56;100965.50;5144154;28;20046;-81
2022/08/20 00:34:27;;;;;;;3.67;1.38;;;;;;;22.99;60.58;100966.47;5125698;28;20054;-81
2022/08/20 00:37:00;;;;;;;0.32;0.32;;;;;;;22.97;59.68;100957.72;5079112;28;20059;-81
2022/08/20 00:39:34;;;;;;;0.30;0.30;;;;;;;23.00;60.07;100952.13;5124697;28;20655;-81
2022/08/20 00:42:05;;;;;;;0.60;0.43;;;;;;;22.99;60.15;100953.94;5137990;28;20031;-81
2022/08/20 00:44:44;;;;;;;0.52;0.52;;;;;;;22.90;60.31;100952.84;5131040;28;20061;-80
2022/08/20 00:47:15;;;;;;;0.40;0.40;;;;;;;22.86;60.71;100937.13;5144468;28;20042;-80
2022/08/20 00:49:45;;;;;;;0.60;0.60;;;;;;;22.81;61.17;100936.63;5113087;28;20023;-81
2022/08/20 00:52:21;;;;;;;0.30;0.30;;;;;;;22.78;60.53;100935.03;5140073;28;20023;-80
2022/08/20 00:54:56;;;;;;;0.40;0.40;;;;;;;22.79;59.93;100942.06;5145054;28;20069;-80
2022/08/20 00:57:50;;;;;;;0.30;0.30;;;;;;;22.78;60.18;100945.72;5142532;28;20044;-80
2022/08/20 01:00:44;;;;;;;0.57;0.57;;;;;;;22.75;60.10;100943.28;5144957;28;20042;-80
2022/08/20 01:03:19;;;;;;;0.40;0.40;;;;;;;22.82;61.93;100944.53;5148643;28;20029;-80
2022/08/20 01:05:51;;;;;;;0.40;0.40;;;;;;;22.81;60.58;100939.31;5111075;28;20038;-80
2022/08/20 01:08:25;;;;;;;0.38;0.38;;;;;;;22.81;60.92;100945.50;5127771;28;20034;-80
2022/08/20 01:14:37;;;;;;;0.30;0.30;;;;;;;22.63;60.88;100942.41;5053875;29;20024;-80
2022/08/20 01:17:16;;;;;;;2.45;0.82;;;;;;;22.61;60.96;100950.50;5111773;28;20051;-80
2022/08/20 01:19:53;;;;;;;0.20;0.20;;;;;;;22.61;60.99;100950.50;5116817;28;20329;-81
2022/08/20 01:26:03;;;;;;;0.75;0.75;;;;;;;22.62;60.96;100944.19;5135951;28;20038;-80
2022/08/20 01:28:42;;;;;;;0.30;0.30;;;;;;;22.52;60.72;100948.50;5126788;28;20034;-81
2022/08/20 01:31:17;;;;;;;0.28;0.28;;;;;;;22.51;60.89;100948.63;5110786;28;20666;-80
2022/08/20 01:33:49;;;;;;;0.60;0.60;;;;;;;22.51;60.60;100943.28;5127932;28;20030;-81
2022/08/20 01:36:26;;;;;;;0.30;0.30;;;;;;;22.47;61.42;100951.56;5119566;28;20050;-80
2022/08/20 01:39:00;;;;;;;0.38;0.38;;;;;;;22.44;60.32;100950.91;5143232;28;20022;-80
2022/08/20 01:42:06;;;;;;;0.22;0.22;;;;;;;22.42;60.40;100952.88;5116158;28;20038;-80
2022/08/20 01:44:39;;;;;;;0.35;0.35;;;;;;;22.39;61.75;100950.38;5147739;28;20125;-80
2022/08/20 01:47:14;;;;;;;0.28;0.28;;;;;;;22.39;60.79;100950.38;5086119;28;20105;-80
2022/08/20 01:49:51;;;;;;;0.80;0.40;;;;;;;22.39;60.60;100958.38;5113887;28;20493;-80
2022/08/20 01:52:41;;;;;;;3.03;0.95;;;;;;;22.36;61.49;100947.91;5112552;28;20050;-80
2022/08/20 01:55:12;;;;;;;0.40;0.40;;;;;;;22.30;62.11;100950.06;5142590;28;20042;-80
2022/08/20 01:57:43;;;;;;;0.55;0.55;;;;;;;22.31;60.67;100959.81;5129652;28;20259;-80
2022/08/20 02:00:21;;;;;;;0.40;0.40;;;;;;;22.32;60.81;100964.19;5134601;28;20046;-81
2022/08/20 02:02:52;;;;;;;0.30;0.30;;;;;;;22.28;61.67;100965.38;5146281;28;20129;-80
2022/08/20 02:05:23;;;;;;;2.70;0.98;;;;;;;22.27;61.63;100955.63;5120914;28;20173;-80
2022/08/20 02:07:54;;;;;;;0.47;0.47;;;;;;;22.29;60.82;100959.06;5127644;28;20084;-80
2022/08/20 02:10:24;;;;;;;0.65;0.65;;;;;;;22.29;60.58;100960.88;5129011;28;20711;-81
2022/08/20 02:12:57;;;;;;;2.33;1.15;;;;;;;22.25;61.11;100959.38;5113038;28;20049;-80
2022/08/20 02:15:27;;;;;;;0.30;0.30;;;;;;;22.20;61.45;100949.03;5112416;28;20049;-80
2022/08/20 02:17:58;;;;;;;1.10;1.00;;;;;;;22.18;61.85;100951.00;5130497;28;20034;-81
2022/08/20 02:20:30;;;;;;;0.43;0.40;;;;;;;22.16;61.95;100953.75;5122257;28;20055;-80
2022/08/20 02:23:23;;;;;;;0.57;0.57;;;;;;;22.16;61.78;100952.91;5146858;28;20033;-80
2022/08/20 02:25:54;;;;;;;0.30;0.30;;;;;;;22.15;62.16;100953.88;5140644;28;20126;-80
2022/08/20 02:28:24;;;;;;;0.30;0.30;;;;;;;22.14;61.73;100958.38;5124718;28;20042;-81
2022/08/20 02:30:55;;;;;;;0.63;0.55;;;;;;;22.17;61.68;100955.47;5129044;28;20042;-80
2022/08/20 02:33:26;;;;;;;0.57;0.43;;;;;;;22.13;62.01;100958.47;5142945;28;20092;-80
2022/08/20 02:35:56;;;;;;;0.38;0.38;;;;;;;22.11;61.88;100961.25;5142828;28;20039;-80
2022/08/20 02:38:29;;;;;;;0.50;0.50;;;;;;;22.11;61.80;100955.91;5116505;28;20030;-80
2022/08/20 02:41:01;;;;;;;0.43;0.43;;;;;;;22.09;62.26;100954.31;5116930;28;20660;-80
2022/08/20 02:43:32;;;;;;;1.20;1.10;;;;;;;22.12;61.32;100952.28;5124371;28;20031;-80
2022/08/20 02:46:06;;;;;;;0.55;0.55;;;;;;;22.12;61.49;100959.44;5142612;28;20049;-80
2022/08/20 02:48:38;;;;;;;0.80;0.55;;;;;;;22.11;61.43;100950.56;5109360;28;20042;-80
2022/08/20 02:51:12;;;;;;;1.55;1.25;;;;;;;22.10;61.08;100953.38;5139006;28;20050;-80
2022/08/20 02:53:43;;;;;;;0.47;0.47;;;;;;;22.09;61.69;100957.84;5113927;28;20082;-80
2022/08/20 02:56:14;;;;;;;0.40;0.40;;;;;;;22.07;61.36;100961.59;5125950;28;20045;-80
2022/08/20 02:58:47;;;;;;;4.60;1.02;;;;;;;22.07;61.15;100965.09;5141516;28;20525;-80
2022/08/20 03:01:19;;;;;;;0.20;0.20;;;;;;;22.10;61.53;100956.03;5099153;28;20054;-80
2022/08/20 03:03:50;;;;;;;2.05;0.40;;;;;;;22.10;60.76;100946.19;5106075;28;20026;-80
2022/08/20 03:06:44;;;;;;;0.60;0.60;;;;;;;22.07;62.64;100942.88;5090581;28;20042;-80
2022/08/20 03:09:20;;;;;;;0.20;0.20;;;;;;;22.01;62.27;100944.16;5132043;28;20121;-80
2022/08/20 03:11:56;;;;;;;0.52;0.52;;;;;;;21.99;62.10;100949.63;5121546;28;20082;-80
2022/08/20 03:14:30;;;;;;;0.60;0.60;;;;;;;21.99;62.21;100957.66;5159832;28;20057;-80
2022/08/20 03:17:01;;;;;;;0.40;0.40;;;;;;;21.99;61.78;100956.78;5126717;28;20591;-80
2022/08/20 03:19:32;;;;;;;1.65;1.08;;;;;;;21.99;62.07;100951.44;5142012;28;20102;-80
2022/08/20 03:22:03;;;;;;;0.63;0.40;;;;;;;22.03;61.82;100942.25;5128918;28;20031;-80
2022/08/20 03:24:34;;;;;;;0.63;0.63;;;;;;;21.97;62.83;100954.22;5126552;28;20030;-80
2022/08/20 03:27:05;;;;;;;1.17;1.17;;;;;;;21.98;61.83;100947.94;5157269;28;20026;-80
2022/08/20 03:29:38;;;;;;;0.20;0.20;;;;;;;21.98;61.50;100945.25;5129880;28;20136;-80
2022/08/20 03:32:09;;;;;;;1.08;0.60;;;;;;;21.97;61.65;100948.03;5135720;28;20121;-81
2022/08/20 03:34:39;;;;;;;0.50;0.50;;;;;;;21.91;62.08;100935.09;5140542;28;20531;-80
2022/08/20 03:37:10;;;;;;;0.45;0.45;;;;;;;22.01;61.83;100938.84;5140232;28;20612;-80
2022/08/20 03:39:41;;;;;;;13.60;2.05;;;;;;;21.94;61.70;100946.41;5124734;28;20038;-80
2022/08/20 03:42:12;;;;;;;0.20;0.20;;;;;;;21.91;62.29;100945.78;5138733;28;20037;-80
2022/08/20 03:44:47;;;;;;;10.43;0.75;;;;;;;21.95;62.17;100944.63;5157155;28;20030;-80
2022/08/20 03:47:18;;;;;;;0.40;0.40;;;;;;;22.00;62.39;100932.66;5123441;28;20031;-80
2022/08/20 03:49:49;;;;;;;0.40;0.40;;;;;;;21.97;62.22;100934.69;5111874;28;20069;-80
2022/08/20 03:52:20;;;;;;;0.85;0.85;;;;;;;21.98;62.88;100933.72;5126502;28;20034;-80
2022/08/20 03:54:50;;;;;;;0.70;0.70;;;;;;;21.94;65.54;100940.25;5141178;28;20038;-80
2022/08/20 03:57:21;;;;;;;0.80;0.80;;;;;;;21.90;66.40;100936.94;5106278;28;20069;-80
2022/08/20 03:59:52;;;;;;;2.92;1.90;;;;;;;21.89;63.77;100943.25;5147920;28;20078;-81
2022/08/20 04:02:26;;;;;;;0.93;0.93;;;;;;;21.86;65.51;100946.13;5115451;28;20691;-80
2022/08/20 04:04:57;;;;;;;0.52;0.52;;;;;;;21.83;68.44;100938.34;5158876;28;20034;-80
2022/08/20 04:07:28;;;;;;;1.30;0.95;;;;;;;21.69;69.06;100940.16;5143299;28;20034;-81
2022/08/20 04:09:58;;;;;;;1.23;1.20;;;;;;;21.63;68.98;100940.59;5141298;28;20022;-80
2022/08/20 04:12:29;;;;;;;0.60;0.60;;;;;;;21.64;69.09;100947.66;5126884;28;20041;-80
2022/08/20 04:14:59;;;;;;;1.50;1.40;;;;;;;21.66;65.90;100953.75;5140134;28;20133;-80
2022/08/20 04:17:40;;;;;;;0.57;0.50;;;;;;;21.70;66.49;100962.38;5157245;28;20026;-81
2022/08/20 04:20:15;;;;;;;2.05;1.48;;;;;;;21.62;67.79;100965.59;5112403;28;20118;-80
2022/08/20 04:22:46;;;;;;;1.23;1.13;;;;;;;21.66;67.67;100960.88;5123767;28;20326;-80
2022/08/20 04:25:17;;;;;;;1.17;1.10;;;;;;;21.67;67.37;100960.81;5109120;28;20800;-80
2022/08/20 04:27:51;;;;;;;1.92;1.60;;;;;;;21.64;67.21;100963.66;5120953;28;20034;-80
2022/08/20 04:30:22;;;;;;;1.08;1.02;;;;;;;21.62;67.26;100959.41;5144223;28;20047;-80
2022/08/20 04:32:54;;;;;;;17.92;2.75;;;;;;;21.56;69.10;100965.16;5109420;28;20122;-80
2022/08/20 04:35:26;;;;;;;3.92;1.50;;;;;;;21.49;71.29;100970.06;5138892;28;20463;-80
2022/08/20 04:38:03;;;;;;;2.20;1.85;;;;;;;21.55;68.89;100966.94;5140962;28;20579;-80
2022/08/20 04:40:53;;;;;;;4.05;2.42;;;;;;;21.53;67.86;100976.88;5125658;28;20038;-80
2022/08/20 04:43:27;;;;;;;1.05;1.05;;;;;;;21.50;68.34;100977.09;5128668;28;20086;-81
2022/08/20 04:46:04;;;;;;;2.38;2.00;;;;;;;21.40;70.10;100982.22;5133789;28;20046;-79
2022/08/20 04:48:39;;;;;;;1.60;1.50;;;;;;;21.48;68.31;100990.56;5144438;28;20172;-79
2022/08/20 04:51:13;;;;;;;3.03;2.67;;;;;;;21.44;66.83;100998.88;5140097;28;20030;-79
2022/08/20 04:53:44;;;;;;;1.27;1.17;;;;;;;21.42;67.80;101006.13;5141021;28;20070;-79
2022/08/20 04:56:17;;;;;;;2.35;1.27;;;;;;;21.44;68.03;101012.25;5156416;28;20040;-80
2022/08/20 04:58:49;;;;;;;2.20;1.17;;;;;;;21.45;67.28;101014.78;5120539;28;20030;-80
2022/08/20 05:01:22;;;;;;;2.03;1.75;;;;;;;21.48;66.49;101019.06;5153452;28;20030;-80
2022/08/20 05:03:54;;;;;;;1.52;1.42;;;;;;;21.45;66.97;101011.25;5144284;28;20034;-79
2022/08/20 05:06:29;;;;;;;1.45;1.35;;;;;;;21.43;66.84;101018.53;5140648;28;20039;-79
2022/08/20 05:09:00;;;;;;;1.55;1.33;;;;;;;21.41;67.44;101012.44;5143856;28;20055;-80
2022/08/20 05:11:30;;;;;;;3.40;2.33;;;;;;;21.44;66.27;101017.56;5111480;28;20038;-79
2022/08/20 05:14:03;;;;;;;2.40;2.00;;;;;;;21.42;67.08;101020.31;5158800;28;20034;-79
2022/08/20 05:16:39;;;;;;;2.65;2.45;;;;;;;21.43;67.36;101023.88;5145298;28;20061;-79
2022/08/20 05:19:11;;;;;;;2.15;1.80;;;;;;;21.44;68.28;101026.41;5146914;28;20037;-80
2022/08/20 05:21:42;;;;;;;1.27;1.20;;;;;;;21.39;67.29;101028.56;5128371;28;20038;-80
2022/08/20 05:24:13;;;;;;;3.17;1.70;;;;;;;21.40;66.51;101024.94;5145015;28;20056;-79
2022/08/20 05:26:44;;;;;;;3.45;1.70;;;;;;;21.43;66.24;101022.03;5125431;28;20108;-80
2022/08/20 05:29:15;;;;;;;1.02;0.95;;;;;;;21.41;67.00;101031.97;5140993;28;20708;-78
2022/08/20 05:31:45;;;;;;;1.65;1.52;;;;;;;21.41;67.90;101025.78;5127254;28;20117;-79
2022/08/20 05:34:16;;;;;;;2.30;1.35;;;;;;;21.43;67.80;101030.06;5126077;28;20022;-81
2022/08/20 05:36:50;;;;;;;2.50;2.30;;;;;;;21.40;66.90;101030.28;5127840;28;20034;-83
2022/08/20 05:39:24;;;;;;;1.52;1.42;;;;;;;21.32;68.03;101032.59;5129966;28;20701;-81
2022/08/20 05:41:55;;;;;;;1.90;1.73;;;;;;;21.33;67.34;101032.50;5128920;28;20061;-80
2022/08/20 05:44:29;;;;;;;1.45;1.35;;;;;;;21.30;69.82;101040.69;5138872;28;20511;-80
2022/08/20 05:47:09;;;;;;;2.10;1.95;;;;;;;21.33;67.58;101037.84;5112733;28;20030;-82
2022/08/20 05:49:45;;;;;;;2.35;1.65;;;;;;;21.29;68.10;101035.47;5133136;28;20137;-80
2022/08/20 05:52:16;;;;;;;1.85;0.98;;;;;;;21.23;68.75;101034.94;5110241;28;20050;-79
2022/08/20 05:54:46;;;;;;;8.57;2.20;;;;;;;21.23;68.21;101039.41;5136363;28;20089;-80
2022/08/20 05:57:18;;;;;;;1.25;0.95;;;;;;;21.27;69.16;101045.38;5111179;28;20031;-79
2022/08/20 06:00:07;;;;;;;1.60;1.50;;;;;;;21.20;69.51;101034.25;5127499;28;20026;-81
2022/08/20 06:05:44;;;;;;;2.25;0.98;;;;;;;21.23;67.51;101044.75;5168788;28;20042;-78
2022/08/20 06:08:15;;;;;;;3.25;1.15;;;;;;;21.21;69.26;101041.31;5152345;28;20065;-80
2022/08/20 06:10:46;;;;;;;1.45;1.20;;;;;;;21.23;66.74;101037.59;5162881;28;20066;-79
2022/08/20 06:13:16;;;;;;;3.25;0.95;;;;;;;21.23;67.26;101044.75;5131463;28;20033;-79
2022/08/20 06:15:47;;;;;;;2.05;1.40;;;;;;;21.18;67.89;101045.03;5140007;28;20038;-79
2022/08/20 06:18:18;;;;;;;1.20;1.10;;;;;;;21.18;67.51;101041.53;5146306;28;20274;-78
2022/08/20 06:20:49;;;;;;;2.17;1.65;;;;;;;21.15;67.65;101033.72;5129167;28;20062;-80
2022/08/20 06:23:20;;;;;;;1.42;1.08;;;;;;;21.16;67.53;101044.28;5150405;28;20044;-81
2022/08/20 06:25:51;;;;;;;3.83;2.03;;;;;;;21.19;68.67;101043.25;5162347;28;20032;-80
2022/08/20 06:28:23;;;;;;;0.80;0.80;;;;;;;21.18;67.55;101052.22;5156343;28;20044;-80
2022/08/20 06:30:56;;;;;;;0.82;0.80;;;;;;;21.21;67.07;101052.84;5158797;28;20121;-81
2022/08/20 06:33:27;;;;;;;0.85;0.85;;;;;;;21.18;68.18;101060.22;5122936;28;20121;-81
2022/08/20 06:35:57;;;;;;;0.82;0.82;;;;;;;21.19;67.61;101054.75;5131651;28;20054;-81
2022/08/20 06:38:31;;;;;;;1.60;1.50;;;;;;;21.16;68.60;101060.28;5137999;28;20034;-80
2022/08/20 06:41:02;;;;;;;0.93;0.88;;;;;;;20.99;71.04;101061.44;5119993;28;20046;-79
2022/08/20 06:43:33;;;;;;;1.73;1.35;;;;;;;21.04;70.09;101059.28;5118929;28;20058;-79
2022/08/20 06:46:05;;;;;;;1.00;1.00;;;;;;;20.98;71.00;101059.72;5123735;28;20026;-79
2022/08/20 06:48:36;;;;;;;1.63;1.52;;;;;;;21.00;70.77;101065.81;5122369;28;20068;-79
2022/08/20 06:51:08;;;;;;;1.90;1.48;;;;;;;21.03;69.02;101059.41;5124122;28;20047;-81
2022/08/20 06:53:42;;;;;;;1.42;0.57;;;;;;;21.02;70.81;101058.56;5151703;28;20033;-81
2022/08/20 06:56:15;;;;;;;1.95;1.40;;;;;;;20.87;71.08;101059.53;5139197;28;20038;-80
2022/08/20 06:58:46;;;;;;;0.88;0.88;;;;;;;20.69;71.52;101065.13;5125599;28;20030;-81
2022/08/20 07:01:19;;;;;;;1.42;1.02;;;;;;;20.80;70.78;101063.56;5071369;28;20053;-81
2022/08/20 07:03:50;;;;;;;4.28;1.23;;;;;;;20.72;71.14;101064.91;5103279;28;20033;-81
2022/08/20 07:06:37;;;;;;;;;;;;;;;;;;;;;
2022/08/20 07:09:30;;;;;;;0.63;0.63;;;;;;;20.86;69.47;101071.19;5143609;28;20037;-81
2022/08/20 07:12:14;;;;;;;1.00;0.98;;;;;;;20.86;68.97;101081.88;5108447;28;20089;-83
2022/08/20 07:14:44;;;;;;;0.80;0.80;;;;;;;20.81;70.09;101081.28;5131861;28;20046;-81
2022/08/20 07:17:31;;;;;;;1.73;1.23;;;;;;;20.88;68.26;101094.13;5142614;28;20038;-81
2022/08/20 07:20:46;;;;;;;0.77;0.77;;;;;;;20.90;68.70;101091.34;5106696;28;20046;-81
2022/08/20 07:23:31;;;;;;;1.70;1.38;;;;;;;20.83;69.70;101088.22;5138024;28;20050;-80
2022/08/20 07:26:28;;;;;;;1.08;1.08;;;;;;;20.85;68.66;101102.31;5134103;28;20041;-80
2022/08/20 07:29:20;;;;;;;1.58;1.48;;;;;;;20.92;67.86;101100.13;5125389;28;20031;-80
2022/08/20 07:32:38;;;;;;;5.18;2.25;;;;;;;20.79;69.34;101104.53;5121098;28;20442;-80
2022/08/20 07:35:44;;;;;;;1.08;1.00;;;;;;;20.56;69.82;101102.38;5084318;28;20043;-81
2022/08/20 07:38:29;;;;;;;1.73;1.38;;;;;;;20.59;68.88;101109.31;5116352;28;20098;-81
2022/08/20 07:41:19;;;;;;;1.00;1.00;;;;;;;20.62;68.65;101114.41;5137262;28;20069;-80
2022/08/20 07:43:52;;;;;;;0.93;0.87;;;;;;;20.66;67.54;101118.63;5107112;28;20647;-82
2022/08/20 07:46:46;;;;;;;1.55;1.38;;;;;;;20.56;68.41;101126.34;5110557;28;20047;-83
2022/08/20 07:49:40;;;;;;;3.10;1.23;;;;;;;20.47;68.10;101128.72;5153507;28;20096;-82
2022/08/20 07:52:12;;;;;;;0.45;0.45;;;;;;;20.59;67.21;101130.63;5128477;28;20652;-82
2022/08/20 07:54:43;;;;;;;0.98;0.95;;;;;;;20.56;66.97;101131.69;5145423;28;20034;-81
2022/08/20 07:57:16;;;;;;;2.50;2.00;;;;;;;20.52;67.89;101130.16;5127913;28;20034;-83
2022/08/20 07:59:47;;;;;;;1.55;1.45;;;;;;;20.43;68.41;101139.59;5140715;28;20041;-82
2022/08/20 08:02:18;;;;;;;2.97;2.30;;;;;;;20.54;67.75;101143.38;5114264;28;20085;-82
2022/08/20 08:04:48;;;;;;;0.88;0.88;;;;;;;20.33;68.28;101143.75;5139360;28;20050;-81
2022/08/20 08:07:21;;;;;;;7.55;0.88;;;;;;;20.37;67.85;101137.28;5135301;28;20121;-83
2022/08/20 08:09:52;;;;;;;1.67;1.58;;;;;;;20.41;67.86;101143.31;5139505;28;20045;-81
2022/08/20 08:12:41;;;;;;;;;;;;;;;;;;;;;
2022/08/20 08:15:20;;;;;;;2.25;1.67;;;;;;;20.34;68.62;101140.16;5116094;28;20026;-82
2022/08/20 08:17:54;;;;;;;1.60;1.50;;;;;;;20.39;67.37;101146.03;5105982;28;20105;-82
2022/08/20 08:20:24;;;;;;;2.33;1.90;;;;;;;20.41;67.67;101140.63;5121041;28;20043;-81
2022/08/20 08:22:56;;;;;;;1.02;1.00;;;;;;;20.43;68.52;101136.03;5130630;28;20077;-82
2022/08/20 08:25:26;;;;;;;3.00;2.08;;;;;;;20.45;67.31;101140.31;5143616;28;20038;-82
2022/08/20 08:28:02;;;;;;;2.55;1.70;;;;;;;20.49;68.15;101140.16;5131542;28;20026;-82
2022/08/20 08:30:37;;;;;;;1.27;1.20;;;;;;;20.47;68.03;101142.03;5096016;28;20484;-82
2022/08/20 08:33:32;;;;;;;1.00;0.95;;;;;;;20.54;67.10;101138.03;5141934;28;20120;-82
2022/08/20 08:36:10;;;;;;;0.65;0.57;;;;;;;20.60;66.62;101140.34;5128419;28;20566;-81
2022/08/20 08:38:43;;;;;;;2.25;1.33;;;;;;;20.65;66.89;101142.72;5128608;28;20068;-81
2022/08/20 08:41:23;;;;;;;0.68;0.68;;;;;;;20.65;66.80;101148.91;5142711;28;20053;-83
2022/08/20 08:44:04;;;;;;;1.75;1.63;;;;;;;20.55;68.44;101151.28;5129047;28;20030;-81
2022/08/20 08:46:43;;;;;;;1.65;1.45;;;;;;;20.57;68.61;101148.53;5126665;28;20046;-81
2022/08/20 08:49:20;;;;;;;2.10;1.73;;;;;;;20.58;68.23;101147.56;5127440;28;20101;-81
2022/08/20 08:51:58;;;;;;;1.55;1.40;;;;;;;20.71;67.24;101156.50;5142824;28;20049;-82
2022/08/20 08:54:37;;;;;;;1.15;0.98;;;;;;;20.78;67.24;101158.84;5160157;28;20231;-82
2022/08/20 08:57:13;;;;;;;1.60;1.50;;;;;;;20.65;68.65;101159.56;5149028;28;20048;-82
2022/08/20 09:00:16;;;;;;;2.47;2.28;;;;;;;20.64;67.91;101155.19;5133346;28;20018;-83
2022/08/20 09:03:20;;;;;;;6.53;0.93;;;;;;;20.61;68.86;101155.38;5129244;28;20062;-81
2022/08/20 09:05:54;;;;;;;1.55;1.38;;;;;;;20.61;68.76;101163.38;5160666;28;20040;-82
2022/08/20 09:08:29;;;;;;;1.73;1.13;;;;;;;20.71;68.27;101163.66;5151724;28;20022;-81
2022/08/20 09:11:05;;;;;;;6.05;2.25;;;;;;;20.81;67.55;101171.94;5164811;28;20042;-81
2022/08/20 09:13:37;;;;;;;1.08;1.08;;;;;;;20.85;66.77;101170.81;5135737;28;20100;-81
2022/08/20 09:16:11;;;;;;;1.63;1.52;;;;;;;20.72;67.75;101168.88;5161553;28;20046;-81
2022/08/20 09:18:42;;;;;;;3.63;2.60;;;;;;;20.81;67.56;101166.63;5126928;28;20031;-81
2022/08/20 09:21:13;;;;;;;1.40;1.30;;;;;;;20.84;66.48;101167.28;5139037;28;20022;-82
2022/08/20 09:23:44;;;;;;;0.98;0.95;;;;;;;20.85;67.05;101173.50;5171736;28;20042;-81
2022/08/20 09:26:14;;;;;;;0.68;0.68;;;;;;;20.96;66.49;101164.78;5153154;28;20037;-82
2022/08/20 09:28:47;;;;;;;2.50;1.88;;;;;;;21.01;66.51;101166.22;5133758;28;20038;-82
2022/08/20 09:31:23;;;;;;;1.15;1.13;;;;;;;20.97;66.66;101171.84;5127423;28;20117;-81
2022/08/20 09:34:00;;;;;;;0.75;0.75;;;;;;;21.02;66.74;101173.28;5143887;28;20089;-81
2022/08/20 09:36:34;;;;;;;1.42;0.93;;;;;;;21.04;66.38;101168.66;5132909;28;20050;-80
2022/08/20 09:39:08;;;;;;;1.05;0.98;;;;;;;21.05;66.51;101175.72;5164068;28;20038;-80
2022/08/20 09:41:40;;;;;;;2.20;1.48;;;;;;;21.19;66.00;101171.31;5132862;28;20726;-80
2022/08/20 09:44:11;;;;;;;2.28;2.08;;;;;;;21.20;67.76;101179.22;5143805;28;20061;-80
2022/08/20 09:46:42;;;;;;;1.40;1.30;;;;;;;21.16;67.28;101177.69;5126598;28;20058;-80
2022/08/20 09:49:12;;;;;;;3.60;2.30;;;;;;;21.24;66.73;101179.88;5115653;28;20724;-80
2022/08/20 09:51:43;;;;;;;1.65;1.55;;;;;;;21.23;67.25;101188.84;5125574;28;20057;-81
2022/08/20 09:54:13;;;;;;;1.70;1.60;;;;;;;21.31;66.62;101186.53;5125843;28;20088;-79
2022/08/20 09:56:44;;;;;;;1.00;0.65;;;;;;;21.33;66.43;101178.41;5129899;28;20185;-82
2022/08/20 09:59:15;;;;;;;3.53;1.85;;;;;;;21.20;67.02;101179.22;5127678;28;20351;-82
2022/08/20 10:01:45;;;;;;;3.05;2.33;;;;;;;21.28;67.29;101175.19;5109473;28;20046;-81
2022/08/20 10:04:21;;;;;;;2.25;1.25;;;;;;;21.26;66.85;101177.09;5146768;28;20400;-80
2022/08/20 10:06:52;;;;;;;0.75;0.75;;;;;;;21.37;66.27;101180.78;5137371;28;20715;-79
2022/08/20 10:09:23;;;;;;;2.58;1.75;;;;;;;21.47;66.21;101177.50;5146051;28;20068;-81
2022/08/20 10:12:19;;;;;;;1.00;1.00;;;;;;;21.43;66.86;101176.00;5113234;28;20038;-82
2022/08/20 10:14:54;;;;;;;1.23;1.15;;;;;;;21.50;66.08;101180.81;5120192;28;20050;-82
2022/08/20 10:17:28;;;;;;;5.32;2.05;;;;;;;21.51;66.05;101190.56;5130631;28;20056;-81
2022/08/20 10:19:58;;;;;;;3.72;1.77;;;;;;;21.49;66.49;101183.59;5119312;28;20050;-83
2022/08/20 10:22:53;;;;;;;2.40;1.17;;;;;;;21.62;65.92;101184.53;5129628;28;20030;-82
2022/08/20 10:25:29;;;;;;;1.40;1.30;;;;;;;21.61;65.89;101187.31;5115835;28;20491;-82
2022/08/20 10:28:03;;;;;;;1.67;1.50;;;;;;;21.66;65.36;101188.72;5116910;28;20065;-80
2022/08/20 10:30:34;;;;;;;3.97;2.53;;;;;;;21.62;65.94;101183.69;5118783;28;20132;-80
2022/08/20 10:33:05;;;;;;;1.83;1.73;;;;;;;21.68;65.63;101181.47;5130793;28;20381;-80
2022/08/20 10:35:36;;;;;;;2.60;2.03;;;;;;;21.63;66.29;101190.75;5124067;28;20055;-80
2022/08/20 10:38:10;;;;;;;1.58;1.48;;;;;;;21.60;66.27;101181.13;5138773;28;20495;-81
2022/08/20 10:40:40;;;;;;;8.98;1.85;;;;;;;21.53;66.53;101187.78;5127179;28;20582;-80
2022/08/20 10:43:11;;;;;;;1.38;1.27;;;;;;;21.70;65.83;101192.88;5113167;28;20038;-80
2022/08/20 10:45:41;;;;;;;2.17;1.98;;;;;;;21.72;65.87;101189.25;5128587;28;20336;-80
2022/08/20 10:48:12;;;;;;;2.08;1.85;;;;;;;21.74;65.50;101187.34;5130262;28;20045;-80
2022/08/20 10:50:42;;;;;;;1.45;1.05;;;;;;;21.83;65.23;101187.56;5125166;28;20038;-80
2022/08/20 10:53:13;;;;;;;6.93;1.00;;;;;;;21.85;65.26;101193.69;5132118;28;20110;-81
2022/08/20 10:55:44;;;;;;;2.83;1.98;;;;;;;21.85;65.24;101190.16;5126374;28;20077;-79
2022/08/20 10:58:14;;;;;;;2.17;2.08;;;;;;;21.92;64.83;101194.13;5146214;28;20022;-80
2022/08/20 11:00:46;;;;;;;1.08;1.08;;;;;;;22.03;64.48;101198.75;5150783;28;20042;-80
2022/08/20 11:03:17;;;;;;;1.15;1.10;;;;;;;22.14;64.21;101203.34;5134494;28;20057;-80
2022/08/20 11:05:47;;;;;;;1.42;1.33;;;;;;;22.18;64.08;101202.19;5113381;28;20053;-80
2022/08/20 11:08:18;;;;;;;1.77;1.67;;;;;;;22.08;63.95;101195.75;5144926;28;20527;-80
2022/08/20 11:10:48;;;;;;;1.90;1.40;;;;;;;22.10;63.87;101199.19;5139361;28;20042;-80
2022/08/20 11:13:19;;;;;;;1.17;1.17;;;;;;;22.18;64.03;101199.50;5138785;28;20039;-80
2022/08/20 11:15:52;;;;;;;3.75;2.35;;;;;;;22.11;63.93;101198.19;5111369;28;20408;-80
2022/08/20 11:18:23;;;;;;;1.75;1.65;;;;;;;22.19;63.80;101201.19;5134270;28;20026;-81
2022/08/20 11:20:54;;;;;;;1.33;1.33;;;;;;;22.26;63.52;101198.97;5176780;28;20051;-79
2022/08/20 11:23:25;;;;;;;5.07;1.30;;;;;;;22.20;64.13;101202.91;5161307;28;20031;-78
2022/08/20 11:25:56;;;;;;;2.03;1.27;;;;;;;22.24;64.03;101206.22;5114760;28;20105;-79
2022/08/20 11:28:29;;;;;;;1.85;1.75;;;;;;;22.14;64.23;101201.53;5144197;28;20030;-79
2022/08/20 11:31:00;;;;;;;5.93;2.97;;;;;;;22.20;63.98;101200.25;5124868;28;20550;-80
2022/08/20 11:33:31;;;;;;;1.67;1.40;;;;;;;22.26;64.20;101199.84;5124317;28;20038;-80
2022/08/20 11:36:02;;;;;;;1.83;1.48;;;;;;;22.17;63.36;101195.97;5127096;28;20047;-80
2022/08/20 11:38:32;;;;;;;2.70;1.98;;;;;;;22.17;63.33;101197.81;5125638;28;20292;-81
2022/08/20 11:41:25;;;;;;;;;;;;;;;;;;;;;
2022/08/20 11:44:12;;;;;;;4.68;3.15;;;;;;;22.35;63.07;101208.19;5132328;28;20058;-80
2022/08/20 11:46:42;;;;;;;1.92;1.77;;;;;;;22.37;61.71;101203.56;5130924;28;20042;-79
2022/08/20 11:49:13;;;;;;;0.82;0.80;;;;;;;22.45;61.66;101202.13;5126701;28;20049;-79
2022/08/20 11:51:43;;;;;;;1.17;1.05;;;;;;;22.58;60.80;101195.91;5111795;28;20042;-79
2022/08/20 11:54:14;;;;;;;4.18;1.63;;;;;;;22.58;60.83;101194.09;5146572;28;20121;-79
2022/08/20 11:56:45;;;;;;;2.20;1.75;;;;;;;22.61;59.49;101203.72;5109472;28;20038;-80
2022/08/20 11:59:17;;;;;;;0.90;0.90;;;;;;;22.64;59.62;101196.31;5147897;28;20038;-79
2022/08/20 12:01:47;;;;;;;1.75;1.42;;;;;;;22.66;60.53;101190.00;5118842;28;20046;-81
2022/08/20 12:04:18;;;;;;;2.50;1.75;;;;;;;22.78;60.28;101189.13;5162440;28;20010;-84
2022/08/20 12:06:49;;;;;;;1.48;1.17;;;;;;;22.72;60.82;101184.22;5152107;28;20053;-81
2022/08/20 12:09:20;;;;;;;2.97;2.13;;;;;;;22.84;59.27;101190.50;5115099;28;20741;-81
2022/08/20 12:11:50;;;;;;;0.90;0.90;;;;;;;22.80;59.43;101192.56;5115724;28;20135;-81
2022/08/20 12:14:21;;;;;;;0.55;0.55;;;;;;;22.84;59.20;101191.38;5151000;28;20046;-81